createdAt,value
2019-05-22T00:01:50.966Z,3.90
2019-05-22T00:04:25.632Z,2.47
2019-05-22T00:07:00.779Z,4.70
2019-05-22T00:09:44.690Z,4.70
2019-05-22T00:12:20.380Z,3.10
2019-05-22T00:14:52.789Z,3.20
2019-05-22T00:17:32.192Z,3.73
2019-05-22T00:20:06.169Z,4.20
2019-05-22T00:22:39.199Z,9.67
2019-05-22T00:25:13.869Z,27.53
2019-05-22T00:27:47.019Z,22.77
2019-05-22T00:30:20.449Z,24.30
2019-05-22T00:32:51.674Z,16.00
2019-05-22T00:35:24.651Z,8.77
2019-05-22T00:37:57.161Z,12.87
2019-05-22T00:40:31.617Z,34.00
2019-05-22T00:43:10.838Z,12.83
2019-05-22T00:45:37.216Z,6.77
2019-05-22T00:48:08.968Z,4.33
2019-05-22T00:50:47.211Z,2.83
2019-05-22T00:53:29.621Z,2.10
2019-05-22T00:56:19.546Z,2.77
2019-05-22T00:58:58.357Z,3.30
2019-05-22T01:01:44.835Z,3.20
2019-05-22T01:04:20.362Z,2.13
2019-05-22T01:06:52.579Z,4.60
2019-05-22T01:09:41.925Z,2.20
2019-05-22T01:12:21.805Z,2.07
2019-05-22T01:14:54.525Z,2.40
2019-05-22T01:17:27.617Z,2.40
2019-05-22T01:20:01.048Z,2.40
2019-05-22T01:22:36.486Z,3.00
2019-05-22T01:25:11.813Z,2.67
2019-05-22T01:27:46.012Z,2.50
2019-05-22T01:30:26.516Z,2.73
2019-05-22T01:32:59.667Z,1.87
2019-05-22T01:35:36.667Z,2.30
2019-05-22T01:38:11.914Z,4.70
2019-05-22T01:40:53.531Z,2.60
2019-05-22T01:43:27.357Z,5.33
2019-05-22T01:46:01.463Z,3.97
2019-05-22T01:48:38.425Z,4.80
2019-05-22T01:51:11.850Z,3.60
2019-05-22T01:53:44.112Z,3.67
2019-05-22T01:56:17.006Z,5.53
2019-05-22T01:58:49.831Z,3.73
2019-05-22T02:01:24.411Z,9.67
2019-05-22T02:03:56.936Z,4.27
2019-05-22T02:06:28.315Z,4.13
2019-05-22T02:09:18.031Z,9.93
2019-05-22T02:11:54.275Z,8.57
2019-05-22T02:14:25.420Z,5.43
2019-05-22T02:16:58.135Z,16.97
2019-05-22T02:19:30.236Z,8.20
2019-05-22T02:22:01.765Z,10.03
2019-05-22T02:24:34.007Z,6.57
2019-05-22T02:27:06.246Z,8.33
2019-05-22T02:29:38.056Z,6.40
2019-05-22T02:32:11.693Z,5.93
2019-05-22T02:34:45.052Z,7.03
2019-05-22T02:37:17.119Z,7.97
2019-05-22T02:39:49.218Z,12.73
2019-05-22T02:42:28.681Z,8.57
2019-05-22T02:45:00.704Z,11.93
2019-05-22T02:47:32.101Z,9.37
2019-05-22T02:50:05.007Z,22.53
2019-05-22T02:52:36.592Z,11.27
2019-05-22T02:55:08.717Z,20.80
2019-05-22T02:57:40.714Z,30.37
2019-05-22T03:00:15.042Z,25.37
2019-05-22T03:02:53.660Z,20.90
2019-05-22T03:05:25.273Z,20.83
2019-05-22T03:07:57.528Z,18.07
2019-05-22T03:10:29.513Z,22.60
2019-05-22T03:13:01.740Z,22.93
2019-05-22T03:15:32.895Z,32.87
2019-05-22T03:18:09.260Z,27.50
2019-05-22T03:20:42.144Z,40.40
2019-05-22T03:23:38.994Z,38.37
2019-05-22T03:26:13.361Z,60.80
2019-05-22T03:28:46.051Z,31.03
2019-05-22T03:31:18.611Z,31.67
2019-05-22T03:33:50.722Z,27.80
2019-05-22T03:36:22.736Z,18.90
2019-05-22T03:38:54.080Z,18.80
2019-05-22T03:41:25.876Z,17.30
2019-05-22T03:43:58.516Z,20.50
2019-05-22T03:46:39.025Z,16.97
2019-05-22T03:49:29.186Z,20.07
2019-05-22T03:51:49.302Z,16.53
2019-05-22T03:54:21.871Z,14.43
2019-05-22T03:56:54.661Z,16.17
2019-05-22T03:59:25.950Z,29.90
2019-05-22T04:01:57.412Z,32.67
2019-05-22T04:04:40.483Z,22.40
2019-05-22T04:07:19.514Z,25.23
2019-05-22T04:09:53.482Z,28.63
2019-05-22T04:12:24.898Z,20.53
2019-05-22T04:14:57.042Z,19.77
2019-05-22T04:17:30.083Z,26.60
2019-05-22T04:20:01.600Z,20.90
2019-05-22T04:22:33.480Z,34.60
2019-05-22T04:25:05.200Z,28.50
2019-05-22T04:27:36.365Z,34.43
2019-05-22T04:30:10.584Z,24.40
2019-05-22T04:32:44.371Z,26.33
2019-05-22T04:35:19.828Z,32.23
2019-05-22T04:37:51.420Z,46.83
2019-05-22T04:40:54.362Z,30.77
2019-05-22T04:43:34.169Z,36.33
2019-05-22T04:46:09.744Z,47.87
2019-05-22T04:48:45.573Z,48.80
2019-05-22T04:51:31.078Z,66.97
2019-05-22T04:54:02.446Z,64.20
2019-05-22T04:56:33.711Z,58.13
2019-05-22T04:59:06.102Z,47.77
2019-05-22T05:01:38.743Z,46.60
2019-05-22T05:04:10.530Z,76.07
2019-05-22T05:06:41.915Z,50.97
2019-05-22T05:09:14.965Z,65.47
2019-05-22T05:11:46.392Z,48.73
2019-05-22T05:14:17.575Z,85.53
2019-05-22T05:16:48.772Z,52.83
2019-05-22T05:19:20.561Z,76.30
2019-05-22T05:21:52.350Z,50.33
2019-05-22T05:24:24.008Z,79.33
2019-05-22T05:26:55.959Z,42.73
2019-05-22T05:29:30.291Z,134.20
2019-05-22T05:32:02.923Z,40.63
2019-05-22T05:34:45.508Z,44.20
2019-05-22T05:37:20.318Z,59.67
2019-05-22T05:40:33.818Z,42.07
2019-05-22T05:43:07.699Z,43.57
2019-05-22T05:45:42.406Z,59.70
2019-05-22T05:48:44.103Z,113.53
2019-05-22T05:51:39.197Z,78.80
2019-05-22T05:54:15.348Z,68.73
2019-05-22T05:56:50.682Z,151.63
2019-05-22T05:59:28.601Z,74.20
2019-05-22T06:02:00.646Z,79.17
2019-05-22T06:04:38.947Z,95.50
2019-05-22T06:07:24.200Z,110.10
2019-05-22T06:10:59.352Z,104.63
2019-05-22T06:13:30.629Z,127.17
2019-05-22T06:17:01.468Z,96.97
2019-05-22T06:19:32.569Z,81.40
2019-05-22T06:22:04.232Z,94.07
2019-05-22T06:24:59.854Z,134.53
2019-05-22T06:27:54.826Z,95.53
2019-05-22T06:30:44.452Z,123.90
2019-05-22T06:33:36.059Z,129.23
2019-05-22T06:36:14.420Z,118.30
2019-05-22T06:38:57.390Z,88.30
2019-05-22T06:41:32.902Z,93.00
2019-05-22T06:44:39.835Z,87.00
2019-05-22T06:47:24.204Z,72.67
2019-05-22T06:49:57.277Z,76.60
2019-05-22T06:52:29.307Z,145.43
2019-05-22T06:55:00.723Z,80.10
2019-05-22T06:57:35.271Z,80.27
2019-05-22T07:00:20.243Z,98.60
2019-05-22T07:02:51.741Z,91.10
2019-05-22T07:05:23.994Z,91.90
2019-05-22T07:07:56.937Z,88.73
2019-05-22T07:10:28.078Z,63.93
2019-05-22T07:13:00.677Z,66.77
2019-05-22T07:16:02.014Z,67.67
2019-05-22T07:18:33.188Z,67.40
2019-05-22T07:21:04.871Z,69.73
2019-05-22T07:23:37.768Z,90.30
2019-05-22T07:26:09.348Z,75.73
2019-05-22T07:28:41.339Z,71.60
2019-05-22T07:31:13.180Z,65.93
2019-05-22T07:33:45.672Z,67.87
2019-05-22T07:36:17.801Z,93.63
2019-05-22T07:38:49.602Z,110.80
2019-05-22T07:41:21.030Z,80.40
2019-05-22T07:43:52.546Z,60.73
2019-05-22T07:46:24.932Z,51.10
2019-05-22T07:48:56.883Z,67.53
2019-05-22T07:51:28.301Z,58.47
2019-05-22T07:53:59.747Z,42.77
2019-05-22T07:56:31.956Z,43.80
2019-05-22T07:59:04.185Z,40.93
2019-05-22T08:01:35.917Z,47.33
2019-05-22T08:04:07.382Z,46.57
2019-05-22T08:06:39.215Z,53.17
2019-05-22T08:09:12.137Z,45.90
2019-05-22T08:11:44.048Z,36.30
2019-05-22T08:14:15.293Z,38.20
2019-05-22T08:16:47.420Z,52.17
2019-05-22T08:19:18.948Z,51.97
2019-05-22T08:22:04.678Z,45.17
2019-05-22T08:24:23.855Z,43.07
2019-05-22T08:26:55.550Z,45.83
2019-05-22T08:29:27.881Z,46.20
2019-05-22T08:32:00.475Z,41.73
2019-05-22T08:34:32.651Z,60.33
2019-05-22T08:37:08.981Z,49.70
2019-05-22T08:39:40.981Z,59.00
2019-05-22T08:42:15.573Z,59.50
2019-05-22T08:44:47.166Z,40.43
2019-05-22T08:47:19.253Z,42.97
2019-05-22T08:49:51.539Z,44.07
2019-05-22T08:52:24.449Z,47.40
2019-05-22T08:54:56.837Z,49.83
2019-05-22T08:57:28.342Z,41.77
2019-05-22T08:59:59.803Z,38.97
2019-05-22T09:02:31.610Z,36.57
2019-05-22T09:05:03.327Z,37.07
2019-05-22T09:07:35.777Z,43.30
2019-05-22T09:10:07.702Z,46.10
2019-05-22T09:12:39.027Z,42.37
2019-05-22T09:15:12.047Z,50.00
2019-05-22T09:17:43.500Z,41.17
2019-05-22T09:20:15.497Z,47.63
2019-05-22T09:22:47.371Z,32.07
2019-05-22T09:25:18.799Z,35.97
2019-05-22T09:27:50.632Z,40.60
2019-05-22T09:30:22.573Z,39.50
2019-05-22T09:32:54.349Z,40.37
2019-05-22T09:35:26.310Z,32.63
2019-05-22T09:37:57.685Z,32.97
2019-05-22T09:40:29.339Z,36.00
2019-05-22T09:43:00.530Z,35.20
2019-05-22T09:45:31.837Z,46.57
2019-05-22T09:48:03.315Z,31.90
2019-05-22T09:50:34.973Z,34.80
2019-05-22T09:53:07.727Z,40.17
2019-05-22T09:55:39.309Z,29.83
2019-05-22T09:58:10.622Z,40.67
2019-05-22T10:00:41.853Z,39.10
2019-05-22T10:03:13.173Z,33.27
2019-05-22T10:05:44.471Z,43.80
2019-05-22T10:08:15.845Z,38.07
2019-05-22T10:10:47.142Z,40.20
2019-05-22T10:13:18.526Z,49.83
2019-05-22T10:15:50.085Z,44.23
2019-05-22T10:18:21.455Z,40.10
2019-05-22T10:20:52.761Z,44.43
2019-05-22T10:23:24.695Z,34.00
2019-05-22T10:25:55.828Z,35.07
2019-05-22T10:28:28.245Z,36.20
2019-05-22T10:31:00.164Z,30.50
2019-05-22T10:33:31.822Z,34.80
2019-05-22T10:36:02.939Z,34.23
2019-05-22T10:38:34.464Z,45.00
2019-05-22T10:41:06.413Z,49.70
2019-05-22T10:43:38.010Z,39.23
2019-05-22T10:46:10.059Z,35.33
2019-05-22T10:48:42.691Z,43.93
2019-05-22T10:51:13.976Z,50.70
2019-05-22T10:53:45.764Z,45.07
2019-05-22T10:56:16.979Z,39.57
2019-05-22T10:58:48.240Z,37.03
2019-05-22T11:01:19.534Z,47.37
2019-05-22T11:03:51.598Z,41.40
2019-05-22T11:06:23.583Z,40.83
2019-05-22T11:08:54.833Z,35.40
2019-05-22T11:11:26.788Z,44.87
2019-05-22T11:14:01.723Z,39.80
2019-05-22T11:16:32.444Z,47.37
2019-05-22T11:19:04.737Z,46.67
2019-05-22T11:21:36.016Z,41.27
2019-05-22T11:24:07.960Z,49.77
2019-05-22T11:26:39.161Z,41.67
2019-05-22T11:29:10.637Z,41.90
2019-05-22T11:31:42.562Z,39.87
2019-05-22T11:34:14.764Z,43.83
2019-05-22T11:36:46.001Z,40.90
2019-05-22T11:39:29.666Z,41.37
2019-05-22T11:41:52.835Z,39.20
2019-05-22T11:44:24.321Z,41.63
2019-05-22T11:46:55.428Z,40.83
2019-05-22T11:49:27.064Z,42.20
2019-05-22T11:51:58.407Z,43.10
2019-05-22T11:54:30.703Z,37.83
2019-05-22T11:57:02.152Z,44.47
2019-05-22T11:59:33.434Z,42.53
2019-05-22T12:02:05.517Z,37.10
2019-05-22T12:04:47.399Z,41.90
2019-05-22T12:07:11.078Z,41.00
2019-05-22T12:09:42.304Z,45.87
2019-05-22T12:12:16.328Z,45.13
2019-05-22T12:14:47.980Z,49.57
2019-05-22T12:17:36.748Z,56.53
2019-05-22T12:19:53.147Z,63.80
2019-05-22T12:22:24.506Z,65.70
2019-05-22T12:24:55.883Z,72.17
2019-05-22T12:27:27.060Z,59.77
2019-05-22T12:29:58.246Z,62.07
2019-05-22T12:32:32.144Z,63.30
2019-05-22T12:35:03.713Z,62.63
2019-05-22T12:37:36.309Z,60.90
2019-05-22T12:40:08.571Z,51.60
2019-05-22T12:42:40.346Z,50.90
2019-05-22T12:45:14.239Z,55.83
2019-05-22T12:47:45.442Z,50.70
2019-05-22T12:50:20.452Z,53.73
2019-05-22T12:52:52.158Z,44.53
2019-05-22T12:55:23.300Z,42.90
2019-05-22T12:57:54.828Z,43.07
2019-05-22T13:00:28.625Z,42.50
2019-05-22T13:03:01.893Z,44.97
2019-05-22T13:05:35.633Z,46.47
2019-05-22T13:08:07.950Z,47.47
2019-05-22T13:10:40.206Z,40.77
2019-05-22T13:13:11.953Z,39.83
2019-05-22T13:15:44.531Z,40.80
2019-05-22T13:18:18.847Z,45.93
2019-05-22T13:20:52.918Z,36.27
2019-05-22T13:23:29.077Z,43.93
2019-05-22T13:26:00.385Z,37.37
2019-05-22T13:28:31.960Z,39.80
2019-05-22T13:31:03.507Z,35.37
2019-05-22T13:33:38.527Z,39.40
2019-05-22T13:36:12.956Z,37.37
2019-05-22T13:38:44.553Z,41.10
2019-05-22T13:41:16.275Z,41.77
2019-05-22T13:43:48.019Z,47.43
2019-05-22T13:46:20.020Z,49.40
2019-05-22T13:48:51.301Z,49.20
2019-05-22T13:51:23.160Z,44.87
2019-05-22T13:53:55.488Z,42.70
2019-05-22T13:56:26.698Z,42.63
2019-05-22T13:58:58.927Z,49.00
2019-05-22T14:01:31.319Z,41.03
2019-05-22T14:04:03.121Z,46.63
2019-05-22T14:06:34.348Z,45.63
2019-05-22T14:09:11.274Z,41.27
2019-05-22T14:11:44.324Z,46.90
2019-05-22T14:14:15.616Z,45.27
2019-05-22T14:16:49.013Z,49.33
2019-05-22T14:19:21.066Z,52.40
2019-05-22T14:21:52.549Z,57.43
2019-05-22T14:24:23.994Z,53.87
2019-05-22T14:26:55.178Z,56.67
2019-05-22T14:29:26.620Z,52.00
2019-05-22T14:31:58.100Z,51.13
2019-05-22T14:34:29.965Z,45.77
2019-05-22T14:37:01.517Z,50.33
2019-05-22T14:39:33.299Z,48.83
2019-05-22T14:42:04.755Z,45.43
2019-05-22T14:44:36.029Z,51.90
2019-05-22T14:47:14.495Z,53.73
2019-05-22T14:49:40.343Z,58.23
2019-05-22T14:52:11.897Z,50.70
2019-05-22T14:54:43.166Z,58.17
2019-05-22T14:57:15.177Z,49.60
2019-05-22T14:59:47.505Z,52.57
2019-05-22T15:02:18.884Z,54.50
2019-05-22T15:04:50.596Z,48.93
2019-05-22T15:07:21.775Z,50.93
2019-05-22T15:09:53.049Z,49.63
2019-05-22T15:12:24.312Z,54.87
2019-05-22T15:14:55.945Z,53.43
2019-05-22T15:17:32.431Z,51.20
2019-05-22T15:20:00.958Z,50.27
2019-05-22T15:22:33.449Z,48.20
2019-05-22T15:25:05.718Z,49.60
2019-05-22T15:27:38.354Z,50.57
2019-05-22T15:30:11.356Z,45.00
2019-05-22T15:32:42.728Z,44.80
2019-05-22T15:35:14.435Z,44.60
2019-05-22T15:37:46.543Z,42.20
2019-05-22T15:40:18.538Z,50.20
2019-05-22T15:42:50.713Z,39.30
2019-05-22T15:45:24.468Z,39.43
2019-05-22T15:47:58.513Z,42.30
2019-05-22T15:50:33.912Z,40.57
2019-05-22T15:53:13.304Z,35.87
2019-05-22T15:55:44.179Z,43.73
2019-05-22T15:58:18.052Z,41.50
2019-05-22T16:00:50.753Z,35.00
2019-05-22T16:03:26.748Z,42.27
2019-05-22T16:05:59.810Z,34.70
2019-05-22T16:08:31.571Z,40.30
2019-05-22T16:11:06.691Z,35.67
2019-05-22T16:13:38.754Z,33.87
2019-05-22T16:16:13.078Z,34.73
2019-05-22T16:18:48.636Z,35.73
2019-05-22T16:21:20.824Z,38.87
2019-05-22T16:23:53.046Z,36.43
2019-05-22T16:26:24.687Z,37.13
2019-05-22T16:28:56.979Z,41.60
2019-05-22T16:31:28.843Z,39.17
2019-05-22T16:34:00.706Z,37.47
2019-05-22T16:36:33.291Z,38.70
2019-05-22T16:39:06.626Z,42.83
2019-05-22T16:41:38.634Z,36.73
2019-05-22T16:44:10.384Z,37.70
2019-05-22T16:46:42.820Z,41.03
2019-05-22T16:49:15.082Z,45.50
2019-05-22T16:51:47.336Z,35.47
2019-05-22T16:54:21.130Z,34.53
2019-05-22T16:56:53.850Z,33.63
2019-05-22T16:59:24.937Z,33.93
2019-05-22T17:02:00.307Z,33.73
2019-05-22T17:04:31.120Z,34.40
2019-05-22T17:07:05.236Z,30.93
2019-05-22T17:09:36.620Z,26.83
2019-05-22T17:12:09.695Z,26.90
2019-05-22T17:14:41.927Z,24.70
2019-05-22T17:17:15.851Z,25.83
2019-05-22T17:19:47.815Z,22.60
2019-05-22T17:22:20.247Z,26.13
2019-05-22T17:24:51.861Z,21.90
2019-05-22T17:27:23.603Z,19.53
2019-05-22T17:29:55.559Z,22.13
2019-05-22T17:32:28.513Z,26.03
2019-05-22T17:35:00.468Z,24.60
2019-05-22T17:37:35.114Z,20.83
2019-05-22T17:40:08.739Z,22.33
2019-05-22T17:42:42.583Z,19.23
2019-05-22T17:45:17.061Z,19.03
2019-05-22T17:47:48.638Z,22.80
2019-05-22T17:50:26.890Z,17.00
2019-05-22T17:52:56.852Z,17.33
2019-05-22T17:55:30.060Z,17.47
2019-05-22T17:58:01.271Z,19.37
2019-05-22T18:00:39.100Z,19.40
2019-05-22T18:03:10.499Z,20.40
2019-05-22T18:05:41.976Z,19.50
2019-05-22T18:08:14.039Z,20.57
2019-05-22T18:10:49.595Z,18.93
2019-05-22T18:13:21.212Z,19.70
2019-05-22T18:15:52.760Z,19.90
2019-05-22T18:18:24.193Z,19.43
2019-05-22T18:20:55.376Z,20.23
2019-05-22T18:23:26.648Z,17.90
2019-05-22T18:25:57.878Z,22.00
2019-05-22T18:28:29.283Z,17.60
2019-05-22T18:31:00.869Z,15.93
2019-05-22T18:33:32.125Z,17.23
2019-05-22T18:36:03.384Z,13.20
2019-05-22T18:38:34.527Z,14.13
2019-05-22T18:41:05.760Z,14.77
2019-05-22T18:43:37.645Z,12.10
2019-05-22T18:46:09.623Z,14.60
2019-05-22T18:48:40.800Z,20.13
2019-05-22T18:51:12.221Z,17.33
2019-05-22T18:53:43.850Z,12.47
2019-05-22T18:56:15.165Z,16.23
2019-05-22T18:58:47.127Z,16.93
2019-05-22T19:01:18.884Z,11.93
2019-05-22T19:03:50.015Z,15.80
2019-05-22T19:06:30.314Z,17.77
2019-05-22T19:08:54.821Z,11.33
2019-05-22T19:11:26.155Z,12.53
2019-05-22T19:13:57.373Z,15.07
2019-05-22T19:16:28.763Z,14.60
2019-05-22T19:19:00.299Z,12.70
2019-05-22T19:21:31.507Z,13.27
2019-05-22T19:24:02.788Z,16.87
2019-05-22T19:26:33.896Z,13.00
2019-05-22T19:29:05.581Z,13.27
2019-05-22T19:31:36.907Z,14.63
2019-05-22T19:34:08.565Z,13.57
2019-05-22T19:36:39.800Z,12.57
2019-05-22T19:39:11.433Z,14.80
2019-05-22T19:41:42.743Z,14.17
2019-05-22T19:44:14.317Z,14.00
2019-05-22T19:46:46.219Z,15.80
2019-05-22T19:49:17.952Z,12.27
2019-05-22T19:51:51.126Z,12.00
2019-05-22T19:54:22.212Z,12.73
2019-05-22T19:56:53.431Z,12.20
2019-05-22T20:02:10.562Z,15.47
2019-05-22T20:04:42.378Z,14.17
2019-05-22T20:07:14.443Z,20.83
2019-05-22T20:09:46.349Z,18.03
2019-05-22T20:12:19.058Z,16.93
2019-05-22T20:14:50.642Z,21.40
2019-05-22T20:17:21.695Z,19.20
2019-05-22T20:19:53.655Z,16.03
2019-05-22T20:22:26.052Z,20.97
2019-05-22T20:24:57.321Z,16.20
2019-05-22T20:27:28.499Z,16.80
2019-05-22T20:29:59.644Z,18.67
2019-05-22T20:32:30.932Z,19.20
2019-05-22T20:35:02.347Z,24.03
2019-05-22T20:37:33.648Z,19.00
2019-05-22T20:40:06.524Z,19.67
2019-05-22T20:42:38.076Z,22.83
2019-05-22T20:45:10.785Z,24.47
2019-05-22T20:47:43.885Z,22.17
2019-05-22T20:50:15.795Z,20.07
2019-05-22T20:52:49.441Z,20.50
2019-05-22T20:55:21.556Z,24.93
2019-05-22T20:57:53.089Z,23.57
2019-05-22T21:00:28.292Z,23.93
2019-05-22T21:03:08.275Z,17.70
2019-05-22T21:05:41.852Z,19.83
2019-05-22T21:08:16.067Z,20.13
2019-05-22T21:10:50.239Z,22.23
2019-05-22T21:13:21.616Z,26.07
2019-05-22T21:15:55.262Z,24.90
2019-05-22T21:18:33.786Z,22.17
2019-05-22T21:21:07.150Z,22.27
2019-05-22T21:23:40.453Z,23.57
2019-05-22T21:26:12.781Z,21.93
2019-05-22T21:28:45.089Z,25.30
2019-05-22T21:31:17.159Z,26.20
2019-05-22T21:33:48.349Z,24.10
2019-05-22T21:36:20.557Z,26.47
2019-05-22T21:38:52.370Z,26.73
2019-05-22T21:41:24.305Z,25.97
2019-05-22T21:43:56.082Z,26.70
2019-05-22T21:46:27.637Z,25.33
2019-05-22T21:48:59.368Z,25.97
2019-05-22T21:51:31.757Z,27.90
2019-05-22T21:54:04.934Z,26.40
2019-05-22T21:56:37.017Z,28.63
2019-05-22T21:59:08.841Z,34.90
2019-05-22T22:01:58.919Z,31.10
2019-05-22T22:04:34.025Z,28.00
2019-05-22T22:07:05.906Z,25.23
2019-05-22T22:09:38.254Z,33.43
2019-05-22T22:12:10.799Z,33.73
2019-05-22T22:14:43.154Z,36.20
2019-05-22T22:17:16.738Z,34.00
2019-05-22T22:19:49.272Z,34.93
2019-05-22T22:22:28.221Z,33.73
2019-05-22T22:24:59.722Z,32.83
2019-05-22T22:27:32.185Z,31.70
2019-05-22T22:30:05.656Z,33.90
2019-05-22T22:32:38.086Z,33.77
2019-05-22T22:35:12.467Z,42.37
2019-05-22T22:37:43.949Z,33.50
2019-05-22T22:40:17.929Z,29.50
2019-05-22T22:42:50.808Z,31.60
2019-05-22T22:45:30.483Z,37.07
2019-05-22T22:48:01.955Z,32.33
2019-05-22T22:50:33.244Z,38.57
2019-05-22T22:53:04.799Z,30.63
2019-05-22T22:55:37.978Z,30.00
2019-05-22T22:58:17.201Z,35.53
2019-05-22T23:00:45.794Z,53.53
2019-05-22T23:03:21.970Z,32.27
2019-05-22T23:05:53.831Z,54.47
2019-05-22T23:08:30.641Z,36.73
2019-05-22T23:11:03.007Z,32.97
2019-05-22T23:13:35.775Z,41.67
2019-05-22T23:16:07.930Z,35.57
2019-05-22T23:19:44.632Z,37.13
2019-05-22T23:22:17.812Z,36.50
2019-05-22T23:24:51.964Z,35.27
2019-05-22T23:27:25.448Z,34.13
2019-05-22T23:29:57.707Z,31.00
2019-05-22T23:32:29.495Z,39.40
2019-05-22T23:35:02.168Z,33.20
2019-05-22T23:37:34.270Z,34.07
2019-05-22T23:40:06.919Z,37.73
2019-05-22T23:42:41.720Z,34.77
2019-05-22T23:45:17.120Z,35.20
2019-05-22T23:48:06.991Z,33.63
2019-05-22T23:50:40.350Z,34.57
2019-05-22T23:53:13.504Z,39.87
2019-05-22T23:55:45.464Z,40.87
2019-05-22T23:58:17.807Z,28.47
